createdAt,value
2018-02-23T00:00:28.691Z,100665.53
2018-02-23T00:02:56.182Z,100664.49
2018-02-23T00:05:23.727Z,100650.87
2018-02-23T00:07:51.221Z,100662.16
2018-02-23T00:10:18.691Z,100661.63
2018-02-23T00:12:46.192Z,100659.75
2018-02-23T00:15:13.653Z,100666.02
2018-02-23T00:17:41.137Z,100659.09
2018-02-23T00:20:08.614Z,100657.37
2018-02-23T00:22:42.076Z,100665.89
2018-02-23T00:25:09.547Z,100656.09
2018-02-23T00:27:37.030Z,100656.44
2018-02-23T00:30:04.507Z,100662.47
2018-02-23T00:32:31.992Z,100655.77
2018-02-23T00:34:59.468Z,100651.80
2018-02-23T00:37:26.954Z,100657.52
2018-02-23T00:39:54.431Z,100653.59
2018-02-23T00:42:21.919Z,100650.41
2018-02-23T00:44:49.378Z,100655.20
2018-02-23T00:47:16.866Z,100655.39
2018-02-23T00:49:44.337Z,100652.66
2018-02-23T00:52:11.849Z,100660.37
2018-02-23T00:54:39.311Z,100659.10
2018-02-23T00:57:06.815Z,100656.58
2018-02-23T00:59:34.287Z,100657.15
2018-02-23T01:02:01.772Z,100647.59
2018-02-23T01:04:29.231Z,100646.13
2018-02-23T01:06:56.735Z,100645.43
2018-02-23T01:09:24.196Z,100650.31
2018-02-23T01:11:51.690Z,100644.09
2018-02-23T01:14:19.161Z,100645.77
2018-02-23T01:16:46.646Z,100646.61
2018-02-23T01:19:14.136Z,100649.08
2018-02-23T01:21:41.607Z,100644.53
2018-02-23T01:24:09.099Z,100645.66
2018-02-23T01:26:36.565Z,100640.34
2018-02-23T01:29:04.053Z,100641.42
2018-02-23T01:31:31.550Z,100645.12
2018-02-23T01:33:59.125Z,100630.98
2018-02-23T01:36:26.582Z,100634.39
2018-02-23T01:38:54.106Z,100640.31
2018-02-23T01:41:21.607Z,100624.70
2018-02-23T01:43:49.083Z,100629.66
2018-02-23T01:46:16.546Z,100631.59
2018-02-23T01:48:44.035Z,100628.96
2018-02-23T01:51:11.507Z,100631.72
2018-02-23T01:53:39.004Z,100630.09
2018-02-23T01:56:06.473Z,100617.97
2018-02-23T01:58:33.960Z,100619.91
2018-02-23T02:01:01.432Z,100624.45
2018-02-23T02:03:28.934Z,100619.69
2018-02-23T02:05:56.400Z,100617.03
2018-02-23T02:08:23.902Z,100615.10
2018-02-23T02:10:51.359Z,100610.86
2018-02-23T02:13:18.845Z,100606.73
2018-02-23T02:15:46.318Z,100605.67
2018-02-23T02:18:13.815Z,100600.52
2018-02-23T02:20:41.291Z,100602.84
2018-02-23T02:23:08.767Z,100602.99
2018-02-23T02:25:36.228Z,100600.33
2018-02-23T02:28:03.756Z,100602.22
2018-02-23T02:30:31.265Z,100596.77
2018-02-23T02:32:58.763Z,100607.77
2018-02-23T02:35:26.239Z,100606.39
2018-02-23T02:37:53.704Z,100599.80
2018-02-23T02:40:21.186Z,100613.26
2018-02-23T02:42:48.647Z,100608.32
2018-02-23T02:45:16.130Z,100605.88
2018-02-23T02:47:43.594Z,100609.28
2018-02-23T02:50:11.084Z,100607.50
2018-02-23T02:52:38.547Z,100610.17
2018-02-23T02:55:06.035Z,100614.78
2018-02-23T02:57:33.496Z,100605.21
2018-02-23T03:00:00.990Z,100603.61
2018-02-23T03:02:28.462Z,100608.69
2018-02-23T03:04:55.967Z,100606.05
2018-02-23T03:07:23.455Z,100596.81
2018-02-23T03:09:50.944Z,100596.36
2018-02-23T03:12:18.427Z,100598.02
2018-02-23T03:14:45.900Z,100607.15
2018-02-23T03:17:13.444Z,100601.31
2018-02-23T03:19:40.885Z,100599.20
2018-02-23T03:22:08.375Z,100603.84
2018-02-23T03:24:35.912Z,100607.95
2018-02-23T03:27:03.403Z,100611.05
2018-02-23T03:29:30.879Z,100607.64
2018-02-23T03:31:58.376Z,100608.41
2018-02-23T03:34:25.847Z,100602.22
2018-02-23T03:36:54.081Z,100606.01
2018-02-23T03:39:21.551Z,100610.27
2018-02-23T03:41:49.026Z,100610.31
2018-02-23T03:44:16.518Z,100611.31
2018-02-23T03:46:44.015Z,100616.04
2018-02-23T03:49:11.508Z,100612.63
2018-02-23T03:51:38.997Z,100616.09
2018-02-23T03:54:06.528Z,100607.84
2018-02-23T03:56:34.004Z,100604.71
2018-02-23T03:59:01.496Z,100609.66
2018-02-23T04:01:28.986Z,100616.81
2018-02-23T04:03:56.494Z,100612.94
2018-02-23T04:06:23.966Z,100612.38
2018-02-23T04:08:51.438Z,100612.74
2018-02-23T04:11:18.925Z,100610.64
2018-02-23T04:13:46.400Z,100614.66
2018-02-23T04:16:13.919Z,100613.27
2018-02-23T04:18:41.396Z,100611.91
2018-02-23T04:21:08.894Z,100622.58
2018-02-23T04:23:36.368Z,100613.04
2018-02-23T04:26:03.883Z,100614.07
2018-02-23T04:28:31.362Z,100606.98
2018-02-23T04:30:58.867Z,100608.95
2018-02-23T04:33:26.335Z,100608.38
2018-02-23T04:35:53.844Z,100605.98
2018-02-23T04:38:21.328Z,100612.58
2018-02-23T04:40:48.823Z,100619.73
2018-02-23T04:43:16.304Z,100613.91
2018-02-23T04:45:43.990Z,100613.63
2018-02-23T04:48:11.463Z,100615.11
2018-02-23T04:50:38.956Z,100614.52
2018-02-23T04:53:07.203Z,100623.37
2018-02-23T04:55:34.707Z,100619.92
2018-02-23T04:58:02.175Z,100623.73
2018-02-23T05:00:29.670Z,100624.63
2018-02-23T05:02:57.146Z,100620.05
2018-02-23T05:05:25.507Z,100621.53
2018-02-23T05:07:52.973Z,100626.60
2018-02-23T05:10:21.132Z,100628.99
2018-02-23T05:12:48.618Z,100635.78
2018-02-23T05:15:16.110Z,100626.28
2018-02-23T05:17:43.579Z,100623.37
2018-02-23T05:20:11.042Z,100626.16
2018-02-23T05:22:38.542Z,100631.62
2018-02-23T05:25:06.022Z,100627.09
2018-02-23T05:27:33.520Z,100631.75
2018-02-23T05:30:00.991Z,100625.58
2018-02-23T05:32:28.480Z,100625.95
2018-02-23T05:34:55.953Z,100630.23
2018-02-23T05:37:23.451Z,100620.95
2018-02-23T05:39:50.922Z,100626.89
2018-02-23T05:42:18.411Z,100631.91
2018-02-23T05:44:45.875Z,100632.87
2018-02-23T05:47:13.367Z,100628.56
2018-02-23T05:49:40.835Z,100636.27
2018-02-23T05:52:08.327Z,100637.79
2018-02-23T05:54:35.799Z,100635.21
2018-02-23T05:57:03.730Z,100631.46
2018-02-23T05:59:31.213Z,100634.46
2018-02-23T06:01:58.735Z,100634.88
2018-02-23T06:04:26.224Z,100637.70
2018-02-23T06:06:53.719Z,100637.34
2018-02-23T06:09:21.185Z,100644.39
2018-02-23T06:11:48.675Z,100647.73
2018-02-23T06:14:16.150Z,100644.45
2018-02-23T06:16:43.639Z,100649.43
2018-02-23T06:19:11.115Z,100651.71
2018-02-23T06:21:38.603Z,100652.17
2018-02-23T06:24:06.071Z,100647.06
2018-02-23T06:26:33.574Z,100652.27
2018-02-23T06:29:01.055Z,100657.83
2018-02-23T06:31:28.547Z,100658.05
2018-02-23T06:33:56.029Z,100661.37
2018-02-23T06:36:23.531Z,100662.80
2018-02-23T06:38:50.999Z,100667.51
2018-02-23T06:41:18.539Z,100669.80
2018-02-23T06:43:46.028Z,100675.90
2018-02-23T06:46:13.496Z,100679.75
2018-02-23T06:48:40.991Z,100670.23
2018-02-23T06:51:08.464Z,100672.80
2018-02-23T06:53:35.956Z,100665.13
2018-02-23T06:56:03.440Z,100672.27
2018-02-23T06:58:30.944Z,100673.58
2018-02-23T07:00:58.411Z,100668.92
2018-02-23T07:03:25.909Z,100678.59
2018-02-23T07:05:53.872Z,100672.36
2018-02-23T07:08:21.365Z,100674.59
2018-02-23T07:10:49.500Z,100664.72
2018-02-23T07:13:16.964Z,100663.09
2018-02-23T07:15:44.462Z,100666.34
2018-02-23T07:18:11.961Z,100664.23
2018-02-23T07:20:39.439Z,100670.80
2018-02-23T07:23:06.933Z,100664.29
2018-02-23T07:25:34.394Z,100666.05
2018-02-23T07:28:02.739Z,100662.76
2018-02-23T07:30:30.201Z,100669.55
2018-02-23T07:32:57.770Z,100665.58
2018-02-23T07:35:25.271Z,100674.28
2018-02-23T07:37:52.757Z,100669.53
2018-02-23T07:40:20.228Z,100666.09
2018-02-23T07:42:47.715Z,100673.59
2018-02-23T07:45:15.182Z,100676.25
2018-02-23T07:47:42.675Z,100667.36
2018-02-23T07:50:10.142Z,100658.16
2018-02-23T07:52:37.631Z,100666.74
2018-02-23T07:55:05.108Z,100669.92
2018-02-23T07:57:32.592Z,100671.43
2018-02-23T08:00:00.064Z,100669.84
2018-02-23T08:02:27.606Z,100671.09
2018-02-23T08:04:55.076Z,100665.05
2018-02-23T08:07:22.584Z,100667.52
2018-02-23T08:09:50.075Z,100673.59
2018-02-23T08:12:17.551Z,100681.11
2018-02-23T08:14:45.053Z,100677.17
2018-02-23T08:17:12.512Z,100684.44
2018-02-23T08:19:40.001Z,100682.50
2018-02-23T08:22:07.463Z,100681.33
2018-02-23T08:24:34.951Z,100684.50
2018-02-23T08:27:02.447Z,100684.33
2018-02-23T08:29:29.923Z,100683.97
2018-02-23T08:31:57.380Z,100675.98
2018-02-23T08:34:24.876Z,100682.95
2018-02-23T08:36:52.367Z,100674.54
2018-02-23T08:39:19.846Z,100681.56
2018-02-23T08:41:47.313Z,100678.31
2018-02-23T08:44:14.812Z,100676.86
2018-02-23T08:46:42.282Z,100680.94
2018-02-23T08:49:09.769Z,100676.33
2018-02-23T08:51:37.232Z,100677.00
2018-02-23T08:54:04.712Z,100679.36
2018-02-23T08:56:32.174Z,100675.95
2018-02-23T08:58:59.677Z,100679.78
2018-02-23T09:01:27.188Z,100671.63
2018-02-23T09:03:54.673Z,100672.08
2018-02-23T09:06:22.143Z,100677.66
2018-02-23T09:08:49.626Z,100672.95
2018-02-23T09:11:17.114Z,100666.16
2018-02-23T09:13:44.609Z,100673.55
2018-02-23T09:16:12.076Z,100663.96
2018-02-23T09:18:39.559Z,100669.72
2018-02-23T09:21:07.022Z,100663.94
2018-02-23T09:23:34.511Z,100672.00
2018-02-23T09:26:01.972Z,100670.03
2018-02-23T09:28:29.433Z,100667.64
2018-02-23T09:30:56.917Z,100663.64
2018-02-23T09:36:23.241Z,100665.30
2018-02-23T09:38:50.951Z,100665.95
2018-02-23T09:41:18.411Z,100657.82
2018-02-23T09:43:45.879Z,100661.87
2018-02-23T09:46:13.370Z,100662.12
2018-02-23T09:48:40.829Z,100662.39
2018-02-23T09:51:08.307Z,100661.84
2018-02-23T09:53:35.764Z,100661.59
2018-02-23T09:56:03.249Z,100660.98
2018-02-23T09:58:30.769Z,100660.03
2018-02-23T10:00:58.263Z,100667.20
2018-02-23T10:03:25.763Z,100667.01
2018-02-23T10:05:53.247Z,100670.22
2018-02-23T10:08:20.708Z,100660.91
2018-02-23T10:10:48.254Z,100667.30
2018-02-23T10:13:15.671Z,100659.28
2018-02-23T10:15:43.174Z,100660.27
2018-02-23T10:18:10.640Z,100662.55
2018-02-23T10:20:38.122Z,100652.32
2018-02-23T10:23:06.724Z,100647.80
2018-02-23T10:25:34.214Z,100658.16
2018-02-23T10:28:01.693Z,100658.02
2018-02-23T10:30:29.164Z,100656.25
2018-02-23T10:32:56.624Z,100657.26
2018-02-23T10:35:24.103Z,100649.38
2018-02-23T10:37:51.555Z,100637.28
2018-02-23T10:40:19.047Z,100635.53
2018-02-23T10:42:46.524Z,100639.17
2018-02-23T10:45:14.029Z,100633.30
2018-02-23T10:47:41.474Z,100624.94
2018-02-23T10:50:08.963Z,100627.74
2018-02-23T10:52:36.423Z,100623.41
2018-02-23T10:55:04.296Z,100624.89
2018-02-23T10:57:31.776Z,100608.33
2018-02-23T10:59:59.250Z,100614.48
2018-02-23T11:02:26.715Z,100623.81
2018-02-23T11:04:54.194Z,100622.16
2018-02-23T11:07:21.678Z,100614.59
2018-02-23T11:09:49.142Z,100612.87
2018-02-23T11:12:16.624Z,100613.53
2018-02-23T11:14:44.093Z,100598.86
2018-02-23T11:17:11.572Z,100607.45
2018-02-23T11:19:39.026Z,100601.69
2018-02-23T11:22:06.512Z,100608.16
2018-02-23T11:24:33.963Z,100605.00
2018-02-23T11:27:01.444Z,100602.72
2018-02-23T11:29:29.724Z,100602.66
2018-02-23T11:31:57.207Z,100601.82
2018-02-23T11:34:24.685Z,100607.09
2018-02-23T11:36:52.167Z,100601.33
2018-02-23T11:39:19.636Z,100582.19
2018-02-23T11:41:47.103Z,100594.83
2018-02-23T11:44:14.840Z,100582.87
2018-02-23T11:46:42.340Z,100591.12
2018-02-23T11:49:09.811Z,100593.54
2018-02-23T11:51:37.341Z,100591.83
2018-02-23T11:54:05.275Z,100596.34
2018-02-23T11:56:32.827Z,100584.69
2018-02-23T11:59:00.297Z,100586.78
2018-02-23T12:01:27.784Z,100584.86
2018-02-23T12:03:55.717Z,100583.48
2018-02-23T12:06:23.240Z,100574.80
2018-02-23T12:08:50.746Z,100578.04
2018-02-23T12:11:18.340Z,100573.13
2018-02-23T12:13:45.888Z,100570.53
2018-02-23T12:16:13.466Z,100571.83
2018-02-23T12:18:42.403Z,100574.61
2018-02-23T12:21:09.948Z,100569.91
2018-02-23T12:23:37.494Z,100572.45
2018-02-23T12:26:05.045Z,100566.69
2018-02-23T12:28:34.594Z,100566.86
2018-02-23T12:31:02.117Z,100561.84
2018-02-23T12:33:29.622Z,100558.41
2018-02-23T12:36:04.563Z,100555.22
2018-02-23T12:38:33.621Z,100556.86
2018-02-23T12:41:02.895Z,100551.97
2018-02-23T12:43:32.419Z,100548.06
2018-02-23T12:46:00.142Z,100548.98
2018-02-23T12:48:28.502Z,100546.81
2018-02-23T12:50:56.174Z,100537.17
2018-02-23T12:53:23.870Z,100540.27
2018-02-23T12:55:51.594Z,100540.97
2018-02-23T12:58:19.268Z,100534.05
2018-02-23T13:00:47.597Z,100528.63
2018-02-23T13:03:15.264Z,100531.75
2018-02-23T13:05:43.123Z,100527.48
2018-02-23T13:08:10.769Z,100527.86
2018-02-23T13:10:38.545Z,100526.62
2018-02-23T13:13:06.317Z,100515.81
2018-02-23T13:15:34.230Z,100514.47
2018-02-23T13:18:01.743Z,100512.39
2018-02-23T13:20:29.227Z,100512.39
2018-02-23T13:22:56.947Z,100501.93
2018-02-23T13:25:24.431Z,100497.86
2018-02-23T13:27:57.423Z,100508.35
2018-02-23T13:30:25.061Z,100510.42
2018-02-23T13:32:52.555Z,100514.77
2018-02-23T13:35:20.019Z,100505.46
2018-02-23T13:37:47.522Z,100505.14
2018-02-23T13:40:15.011Z,100500.65
2018-02-23T13:42:42.511Z,100497.97
2018-02-23T13:45:10.004Z,100497.76
2018-02-23T13:47:37.512Z,100494.52
2018-02-23T13:50:05.204Z,100483.30
2018-02-23T13:52:32.816Z,100488.92
2018-02-23T13:55:00.326Z,100492.42
2018-02-23T13:57:27.835Z,100483.55
2018-02-23T13:59:55.567Z,100481.27
2018-02-23T14:02:23.076Z,100477.34
2018-02-23T14:04:50.622Z,100470.09
2018-02-23T14:07:33.198Z,100466.48
2018-02-23T14:10:00.674Z,100471.52
2018-02-23T14:12:28.162Z,100464.98
2018-02-23T14:14:55.695Z,100459.55
2018-02-23T14:17:23.535Z,100448.60
2018-02-23T14:19:51.473Z,100452.16
2018-02-23T14:22:18.952Z,100454.34
2018-02-23T14:24:46.453Z,100457.20
2018-02-23T14:27:13.951Z,100455.75
2018-02-23T14:29:41.442Z,100457.33
2018-02-23T14:32:08.919Z,100450.43
2018-02-23T14:34:36.500Z,100459.13
2018-02-23T14:37:04.045Z,100454.30
2018-02-23T14:39:31.651Z,100442.32
2018-02-23T14:41:59.616Z,100446.17
2018-02-23T14:44:27.195Z,100441.41
2018-02-23T14:46:54.686Z,100434.09
2018-02-23T14:49:22.228Z,100429.60
2018-02-23T14:51:49.801Z,100433.27
2018-02-23T14:54:17.297Z,100432.56
2018-02-23T14:56:44.779Z,100428.95
2018-02-23T14:59:12.271Z,100425.81
2018-02-23T15:01:39.757Z,100425.55
2018-02-23T15:04:07.260Z,100424.19
2018-02-23T15:06:34.749Z,100427.02
2018-02-23T15:09:02.312Z,100428.20
2018-02-23T15:11:29.821Z,100428.78
2018-02-23T15:13:57.327Z,100424.86
2018-02-23T15:16:25.053Z,100421.59
2018-02-23T15:18:52.563Z,100416.31
2018-02-23T15:21:20.319Z,100419.24
2018-02-23T15:23:47.947Z,100428.00
2018-02-23T15:26:15.424Z,100429.49
2018-02-23T15:28:43.864Z,100429.52
2018-02-23T15:31:23.191Z,100423.80
2018-02-23T15:33:50.758Z,100422.92
2018-02-23T15:36:18.286Z,100424.61
2018-02-23T15:38:45.796Z,100424.00
2018-02-23T15:41:13.290Z,100413.66
2018-02-23T15:46:12.537Z,100430.00
2018-02-23T15:51:52.243Z,100432.72
2018-02-23T15:54:20.349Z,100427.34
2018-02-23T15:56:47.840Z,100433.65
2018-02-23T15:59:15.329Z,100438.27
2018-02-23T16:01:44.724Z,100425.97
2018-02-23T16:04:12.234Z,100430.88
2018-02-23T16:06:39.715Z,100431.34
2018-02-23T16:09:07.196Z,100428.52
2018-02-23T16:11:35.212Z,100433.52
2018-02-23T16:14:02.699Z,100429.12
2018-02-23T16:16:30.199Z,100430.73
2018-02-23T16:18:57.643Z,100436.46
2018-02-23T16:21:25.151Z,100440.69
2018-02-23T16:23:52.616Z,100443.27
2018-02-23T16:26:21.556Z,100443.95
2018-02-23T16:28:49.065Z,100442.20
2018-02-23T16:31:16.572Z,100450.27
2018-02-23T16:33:44.063Z,100446.49
2018-02-23T16:36:12.621Z,100448.36
2018-02-23T16:38:49.340Z,100453.06
2018-02-23T16:41:16.862Z,100450.68
2018-02-23T16:43:44.424Z,100459.48
2018-02-23T16:46:12.000Z,100454.29
2018-02-23T16:48:39.497Z,100452.90
2018-02-23T16:51:07.043Z,100459.88
2018-02-23T16:53:34.512Z,100455.47
2018-02-23T16:56:02.014Z,100457.48
2018-02-23T16:58:29.492Z,100448.27
2018-02-23T17:00:57.005Z,100455.19
2018-02-23T17:03:26.459Z,100456.15
2018-02-23T17:05:54.051Z,100462.01
2018-02-23T17:08:21.638Z,100462.30
2018-02-23T17:10:49.161Z,100459.64
2018-02-23T17:13:16.677Z,100472.16
2018-02-23T17:15:44.189Z,100472.39
2018-02-23T17:18:11.670Z,100473.30
2018-02-23T17:20:39.191Z,100475.13
2018-02-23T17:23:06.680Z,100473.84
2018-02-23T17:25:34.200Z,100471.27
2018-02-23T17:28:01.700Z,100470.69
2018-02-23T17:30:29.240Z,100465.84
2018-02-23T17:32:56.733Z,100481.33
2018-02-23T17:35:24.285Z,100481.39
2018-02-23T17:37:51.822Z,100486.02
2018-02-23T17:40:19.407Z,100483.48
2018-02-23T17:42:46.948Z,100496.00
2018-02-23T17:45:14.447Z,100499.28
2018-02-23T17:47:41.928Z,100498.35
2018-02-23T17:50:09.461Z,100496.55
2018-02-23T17:52:37.055Z,100496.55
2018-02-23T17:55:04.553Z,100499.55
2018-02-23T17:57:32.080Z,100502.95
2018-02-23T17:59:59.531Z,100502.25
2018-02-23T18:02:27.028Z,100513.05
2018-02-23T18:04:54.500Z,100510.77
2018-02-23T18:07:23.505Z,100516.36
2018-02-23T18:09:51.216Z,100517.09
2018-02-23T18:12:19.082Z,100505.78
2018-02-23T18:14:46.736Z,100504.28
2018-02-23T18:19:46.105Z,100505.08
2018-02-23T18:22:13.746Z,100505.24
2018-02-23T18:24:41.265Z,100512.05
2018-02-23T18:27:08.749Z,100515.13
2018-02-23T18:29:36.228Z,100515.81
2018-02-23T18:32:03.836Z,100509.75
2018-02-23T18:34:31.302Z,100507.35
2018-02-23T18:36:59.164Z,100512.19
2018-02-23T18:39:28.346Z,100514.63
2018-02-23T18:41:56.047Z,100504.61
2018-02-23T18:44:23.729Z,100516.47
2018-02-23T18:46:51.446Z,100512.16
2018-02-23T18:49:19.075Z,100514.17
2018-02-23T18:51:46.842Z,100508.20
2018-02-23T18:54:14.487Z,100501.22
2018-02-23T18:56:42.046Z,100505.88
2018-02-23T18:59:09.550Z,100500.88
2018-02-23T19:01:37.988Z,100489.95
2018-02-23T19:04:05.516Z,100487.92
2018-02-23T19:06:33.060Z,100485.83
2018-02-23T19:09:00.548Z,100482.20
2018-02-23T19:11:29.544Z,100481.41
2018-02-23T19:13:57.180Z,100487.00
2018-02-23T19:16:24.728Z,100500.02
2018-02-23T19:18:52.239Z,100506.48
2018-02-23T19:21:19.842Z,100517.12
2018-02-23T19:23:47.508Z,100520.05
2018-02-23T19:26:14.982Z,100524.36
2018-02-23T19:28:42.775Z,100521.00
2018-02-23T19:31:10.331Z,100528.72
2018-02-23T19:33:37.821Z,100531.59
2018-02-23T19:36:06.148Z,100530.70
2018-02-23T19:38:33.707Z,100533.59
2018-02-23T19:41:01.216Z,100536.30
2018-02-23T19:43:31.982Z,100534.03
2018-02-23T19:46:02.188Z,100531.67
2018-02-23T19:48:29.748Z,100536.72
2018-02-23T19:50:57.734Z,100542.55
2018-02-23T19:53:25.405Z,100556.70
2018-02-23T19:55:52.891Z,100550.55
2018-02-23T19:58:23.034Z,100555.13
2018-02-23T20:00:50.717Z,100556.27
2018-02-23T20:03:18.911Z,100560.20
2018-02-23T20:05:47.549Z,100568.23
2018-02-23T20:08:15.629Z,100568.77
2018-02-23T20:10:43.128Z,100564.75
2018-02-23T20:13:12.069Z,100570.39
2018-02-23T20:15:40.733Z,100565.27
2018-02-23T20:18:08.490Z,100567.16
2018-02-23T20:20:37.377Z,100575.58
2018-02-23T20:23:05.219Z,100573.83
2018-02-23T20:25:32.728Z,100576.39
2018-02-23T20:28:00.319Z,100573.90
2018-02-23T20:30:28.806Z,100576.24
2018-02-23T20:32:56.657Z,100576.81
2018-02-23T20:38:20.001Z,100587.00
2018-02-23T20:40:47.886Z,100590.78
2018-02-23T20:43:15.624Z,100584.80
2018-02-23T20:45:43.372Z,100582.55
2018-02-23T20:48:11.023Z,100578.33
2018-02-23T20:50:40.255Z,100575.59
2018-02-23T20:53:08.068Z,100574.77
2018-02-23T20:55:37.507Z,100568.05
2018-02-23T20:58:05.422Z,100565.73
2018-02-23T21:00:33.197Z,100564.58
2018-02-23T21:03:00.727Z,100564.99
2018-02-23T21:05:28.503Z,100570.48
2018-02-23T21:07:56.052Z,100560.02
2018-02-23T21:10:24.386Z,100559.53
2018-02-23T21:12:51.915Z,100561.53
2018-02-23T21:15:19.662Z,100572.66
2018-02-23T21:17:48.103Z,100571.58
2018-02-23T21:20:15.948Z,100576.47
2018-02-23T21:22:43.742Z,100583.61
2018-02-23T21:25:11.256Z,100585.19
2018-02-23T21:27:39.769Z,100576.72
2018-02-23T21:30:08.250Z,100565.07
2018-02-23T21:32:36.071Z,100567.66
2018-02-23T21:35:03.680Z,100567.73
2018-02-23T21:37:31.822Z,100568.39
2018-02-23T21:40:01.209Z,100565.14
2018-02-23T21:42:29.038Z,100567.38
2018-02-23T21:44:56.585Z,100572.20
2018-02-23T21:47:24.554Z,100575.78
2018-02-23T21:49:52.148Z,100571.12
2018-02-23T21:52:19.691Z,100574.27
2018-02-23T21:54:47.180Z,100573.67
2018-02-23T21:57:14.869Z,100578.50
2018-02-23T21:59:43.471Z,100576.47
2018-02-23T22:02:11.007Z,100573.26
2018-02-23T22:04:42.227Z,100564.62
2018-02-23T22:07:09.924Z,100556.16
2018-02-23T22:09:37.516Z,100562.06
2018-02-23T22:12:05.227Z,100564.80
2018-02-23T22:14:32.756Z,100560.98
2018-02-23T22:17:00.908Z,100569.82
2018-02-23T22:19:28.744Z,100566.14
2018-02-23T22:21:56.712Z,100568.87
2018-02-23T22:24:25.252Z,100567.95
2018-02-23T22:26:52.735Z,100579.66
2018-02-23T22:29:20.311Z,100580.03
2018-02-23T22:31:47.832Z,100556.20
2018-02-23T22:34:15.347Z,100579.70
2018-02-23T22:36:42.826Z,100579.81
2018-02-23T22:39:10.399Z,100577.77
2018-02-23T22:41:37.895Z,100568.91
2018-02-23T22:44:05.859Z,100574.35
2018-02-23T22:46:33.331Z,100585.28
2018-02-23T22:49:01.333Z,100588.19
2018-02-23T22:51:28.992Z,100586.83
2018-02-23T22:53:56.515Z,100590.53
2018-02-23T22:56:24.214Z,100582.84
2018-02-23T22:58:51.675Z,100583.41
2018-02-23T23:01:19.228Z,100581.52
2018-02-23T23:03:46.998Z,100572.06
2018-02-23T23:06:14.490Z,100580.11
2018-02-23T23:08:46.071Z,100579.84
2018-02-23T23:11:13.559Z,100582.84
2018-02-23T23:13:41.043Z,100583.05
2018-02-23T23:16:08.818Z,100582.56
2018-02-23T23:18:36.303Z,100578.33
2018-02-23T23:21:03.850Z,100582.31
2018-02-23T23:23:31.599Z,100590.22
2018-02-23T23:25:59.202Z,100574.27
2018-02-23T23:28:26.720Z,100566.78
2018-02-23T23:30:54.614Z,100568.84
2018-02-23T23:33:22.394Z,100573.31
2018-02-23T23:35:49.924Z,100566.33
2018-02-23T23:38:17.412Z,100569.40
2018-02-23T23:40:45.186Z,100573.06
2018-02-23T23:43:12.727Z,100575.37
2018-02-23T23:45:40.262Z,100579.16
2018-02-23T23:48:08.677Z,100581.09
2018-02-23T23:50:36.408Z,100592.03
2018-02-23T23:53:05.267Z,100599.58
2018-02-23T23:55:32.759Z,100600.91
2018-02-23T23:58:00.326Z,100600.47
